createdAt,value
2023-02-28T00:02:00.589Z,99446.94
2023-02-28T00:04:29.488Z,99441.56
2023-02-28T00:06:58.007Z,99438.06
2023-02-28T00:09:26.906Z,99439.91
2023-02-28T00:11:55.572Z,99440.75
2023-02-28T00:14:24.508Z,99439.03
2023-02-28T00:16:54.477Z,99438.06
2023-02-28T00:19:23.214Z,99440.75
2023-02-28T00:21:51.980Z,99439.91
2023-02-28T00:24:20.806Z,99450.63
2023-02-28T00:26:49.447Z,99436.34
2023-02-28T00:29:18.074Z,99449.75
2023-02-28T00:31:46.605Z,99442.72
2023-02-28T00:34:16.679Z,99440.03
2023-02-28T00:36:47.312Z,99448.09
2023-02-28T00:39:16.228Z,99449.94
2023-02-28T00:41:44.750Z,99451.78
2023-02-28T00:44:13.465Z,99451.59
2023-02-28T00:46:42.064Z,99450.75
2023-02-28T00:49:10.613Z,99445.41
2023-02-28T00:51:40.554Z,99446.25
2023-02-28T00:54:09.243Z,99449.94
2023-02-28T00:56:37.811Z,99457.97
2023-02-28T00:59:06.674Z,99462.50
2023-02-28T01:01:35.415Z,99459.81
2023-02-28T01:04:04.276Z,99457.97
2023-02-28T01:06:33.600Z,99454.47
2023-02-28T01:09:03.619Z,99453.63
2023-02-28T01:11:32.223Z,99450.06
2023-02-28T01:14:00.852Z,99450.94
2023-02-28T01:16:29.732Z,99455.41
2023-02-28T01:18:58.445Z,99457.13
2023-02-28T01:21:27.462Z,99458.09
2023-02-28T01:23:58.702Z,99450.06
2023-02-28T01:26:28.650Z,99460.78
2023-02-28T01:28:57.281Z,99450.06
2023-02-28T01:31:26.105Z,99454.59
2023-02-28T01:33:54.951Z,99451.91
2023-02-28T01:36:24.863Z,99443.84
2023-02-28T01:38:53.572Z,99449.09
2023-02-28T01:41:23.556Z,99437.50
2023-02-28T01:44:04.881Z,99443.84
2023-02-28T01:46:34.146Z,99440.19
2023-02-28T01:49:07.970Z,99439.31
2023-02-28T01:51:41.589Z,99441.03
2023-02-28T01:54:14.759Z,99438.47
2023-02-28T01:56:46.158Z,99437.63
2023-02-28T01:59:21.989Z,99439.31
2023-02-28T02:01:50.793Z,99433.94
2023-02-28T02:04:20.452Z,99438.47
2023-02-28T02:06:49.107Z,99433.94
2023-02-28T02:09:17.815Z,99434.97
2023-02-28T02:11:46.427Z,99437.63
2023-02-28T02:14:42.638Z,99438.47
2023-02-28T02:17:19.275Z,99434.13
2023-02-28T02:20:27.830Z,99427.91
2023-02-28T02:23:29.388Z,99433.28
2023-02-28T02:25:58.918Z,99440.44
2023-02-28T02:29:21.531Z,99434.25
2023-02-28T02:32:12.174Z,99430.59
2023-02-28T02:34:50.542Z,99434.25
2023-02-28T02:37:30.006Z,99442.16
2023-02-28T02:40:04.733Z,99427.19
2023-02-28T02:42:44.818Z,99431.56
2023-02-28T02:45:16.799Z,99421.81
2023-02-28T02:47:45.753Z,99427.19
2023-02-28T02:50:19.925Z,99422.66
2023-02-28T02:52:50.958Z,99429.88
2023-02-28T02:55:19.705Z,99421.81
2023-02-28T02:57:50.978Z,99422.78
2023-02-28T03:00:21.514Z,99427.19
2023-02-28T03:02:50.328Z,99421.00
2023-02-28T03:05:23.103Z,99430.84
2023-02-28T03:07:51.739Z,99431.72
2023-02-28T03:10:38.897Z,99426.34
2023-02-28T03:13:34.750Z,99436.22
2023-02-28T03:16:25.496Z,99434.53
2023-02-28T03:18:59.168Z,99436.22
2023-02-28T03:21:32.805Z,99434.41
2023-02-28T03:24:05.824Z,99434.53
2023-02-28T03:26:35.328Z,99436.38
2023-02-28T03:29:06.860Z,99439.06
2023-02-28T03:31:38.973Z,99437.22
2023-02-28T03:34:10.622Z,99436.38
2023-02-28T03:36:44.961Z,99437.22
2023-02-28T03:39:16.790Z,99439.91
2023-02-28T03:41:48.785Z,99451.63
2023-02-28T03:44:20.139Z,99446.28
2023-02-28T03:46:54.629Z,99441.88
2023-02-28T03:49:24.983Z,99449.25
2023-02-28T03:51:54.931Z,99446.56
2023-02-28T03:54:26.158Z,99448.09
2023-02-28T03:56:57.763Z,99457.97
2023-02-28T03:59:29.599Z,99447.13
2023-02-28T04:01:59.410Z,99451.47
2023-02-28T04:04:29.884Z,99452.31
2023-02-28T04:07:06.500Z,99453.19
2023-02-28T04:09:35.147Z,99459.69
2023-02-28T04:12:03.788Z,99457.84
2023-02-28T04:14:32.539Z,99465.06
2023-02-28T04:17:01.170Z,99463.94
2023-02-28T04:19:30.137Z,99456.84
2023-02-28T04:21:58.628Z,99457.69
2023-02-28T04:24:29.742Z,99461.38
2023-02-28T04:26:59.384Z,99457.00
2023-02-28T04:29:29.391Z,99467.03
2023-02-28T04:32:00.096Z,99474.09
2023-02-28T04:34:29.069Z,99474.09
2023-02-28T04:37:11.806Z,99477.78
2023-02-28T04:39:43.032Z,99475.94
2023-02-28T04:42:11.791Z,99484.13
2023-02-28T04:44:40.410Z,99483.13
2023-02-28T04:47:08.971Z,99480.59
2023-02-28T04:49:37.668Z,99479.63
2023-02-28T04:52:08.534Z,99484.13
2023-02-28T04:54:37.213Z,99481.44
2023-02-28T04:57:07.519Z,99484.97
2023-02-28T04:59:36.050Z,99487.66
2023-02-28T05:02:08.120Z,99484.13
2023-02-28T05:04:37.128Z,99484.13
2023-02-28T05:07:05.686Z,99480.59
2023-02-28T05:09:35.778Z,99478.78
2023-02-28T05:12:04.440Z,99483.25
2023-02-28T05:14:34.480Z,99485.81
2023-02-28T05:17:03.064Z,99481.44
2023-02-28T05:19:31.643Z,99478.91
2023-02-28T05:22:00.367Z,99478.91
2023-02-28T05:24:29.127Z,99487.78
2023-02-28T05:26:57.805Z,99491.31
2023-02-28T05:29:26.346Z,99485.09
2023-02-28T05:31:56.481Z,99491.31
2023-02-28T05:34:25.123Z,99490.47
2023-02-28T05:36:53.873Z,99501.22
2023-02-28T05:39:22.939Z,99505.75
2023-02-28T05:41:51.549Z,99504.91
2023-02-28T05:44:20.091Z,99500.38
2023-02-28T05:46:48.928Z,99508.41
2023-02-28T05:49:18.887Z,99510.25
2023-02-28T05:51:47.646Z,99504.06
2023-02-28T05:54:16.581Z,99507.56
2023-02-28T05:56:46.755Z,99517.31
2023-02-28T05:59:15.335Z,99521.84
2023-02-28T06:01:49.207Z,99521.84
2023-02-28T06:04:31.898Z,99517.31
2023-02-28T06:07:01.000Z,99518.16
2023-02-28T06:09:30.157Z,99525.06
2023-02-28T06:12:00.561Z,99520.56
2023-02-28T06:14:29.242Z,99516.75
2023-02-28T06:16:59.183Z,99528.59
2023-02-28T06:19:29.725Z,99525.91
2023-02-28T06:21:58.714Z,99540.34
2023-02-28T06:24:29.104Z,99540.22
2023-02-28T06:26:58.654Z,99546.97
2023-02-28T06:29:27.405Z,99554.91
2023-02-28T06:31:55.981Z,99548.69
2023-02-28T06:34:24.652Z,99558.56
2023-02-28T06:36:54.828Z,99554.06
2023-02-28T06:39:23.896Z,99545.84
2023-02-28T06:41:56.105Z,99549.53
2023-02-28T06:44:25.265Z,99551.78
2023-02-28T06:46:53.878Z,99552.47
2023-02-28T06:49:22.514Z,99555.16
2023-02-28T06:51:51.111Z,99548.84
2023-02-28T06:54:21.163Z,99548.13
2023-02-28T06:56:49.861Z,99558.13
2023-02-28T06:59:19.051Z,99556.47
2023-02-28T07:01:47.837Z,99553.63
2023-02-28T07:04:16.484Z,99554.63
2023-02-28T07:06:45.536Z,99557.13
2023-02-28T07:09:14.939Z,99564.34
2023-02-28T07:11:45.099Z,99570.56
2023-02-28T07:14:13.681Z,99570.44
2023-02-28T07:16:42.225Z,99567.88
2023-02-28T07:19:10.951Z,99574.13
2023-02-28T07:21:39.593Z,99574.97
2023-02-28T07:24:09.450Z,99566.06
2023-02-28T07:26:38.023Z,99574.97
2023-02-28T07:29:08.163Z,99582.00
2023-02-28T07:31:36.728Z,99575.81
2023-02-28T07:34:05.663Z,99576.66
2023-02-28T07:36:34.262Z,99573.13
2023-02-28T07:39:02.890Z,99571.28
2023-02-28T07:41:34.646Z,99571.28
2023-02-28T07:44:04.377Z,99574.97
2023-02-28T07:46:37.000Z,99576.53
2023-02-28T07:49:06.273Z,99572.13
2023-02-28T07:51:35.361Z,99575.69
2023-02-28T07:54:04.244Z,99573.97
2023-02-28T07:56:33.121Z,99583.72
2023-02-28T07:59:02.617Z,99573.97
2023-02-28T08:01:31.552Z,99573.13
2023-02-28T08:04:01.781Z,99576.66
2023-02-28T08:06:30.301Z,99566.75
2023-02-28T08:08:59.145Z,99572.75
2023-02-28T08:11:28.237Z,99573.25
2023-02-28T08:13:57.227Z,99573.13
2023-02-28T08:16:25.967Z,99581.31
2023-02-28T08:18:54.863Z,99583.16
2023-02-28T08:21:25.083Z,99580.47
2023-02-28T08:23:53.730Z,99574.25
2023-02-28T08:26:22.758Z,99579.63
2023-02-28T08:28:51.449Z,99564.50
2023-02-28T08:31:20.459Z,99583.97
2023-02-28T08:33:52.214Z,99570.72
2023-02-28T08:36:23.999Z,99575.94
2023-02-28T08:38:53.081Z,99568.59
2023-02-28T08:41:21.599Z,99580.34
2023-02-28T08:43:50.144Z,99580.34
2023-02-28T08:46:18.911Z,99583.47
2023-02-28T08:48:47.469Z,99582.84
2023-02-28T08:51:23.164Z,99582.84
2023-02-28T08:53:53.177Z,99576.66
2023-02-28T08:56:22.184Z,99578.38
2023-02-28T08:58:51.533Z,99580.91
2023-02-28T09:01:21.353Z,99589.09
2023-02-28T09:03:52.502Z,99586.41
2023-02-28T09:06:22.251Z,99585.41
2023-02-28T09:08:53.999Z,99589.09
2023-02-28T09:11:23.017Z,99578.22
2023-02-28T09:13:51.542Z,99580.91
2023-02-28T09:16:20.249Z,99581.50
2023-02-28T09:18:48.880Z,99585.72
2023-02-28T09:21:19.392Z,99576.69
2023-02-28T09:23:49.326Z,99576.53
2023-02-28T09:26:20.554Z,99580.94
2023-02-28T09:28:49.119Z,99580.78
2023-02-28T09:31:22.045Z,99580.78
2023-02-28T09:33:50.952Z,99573.59
2023-02-28T09:36:19.941Z,99571.75
2023-02-28T09:38:49.731Z,99572.47
2023-02-28T09:41:21.560Z,99575.97
2023-02-28T09:43:52.957Z,99582.03
2023-02-28T09:46:35.453Z,99582.03
2023-02-28T09:49:06.801Z,99585.72
2023-02-28T09:51:52.497Z,99586.84
2023-02-28T09:54:23.763Z,99590.38
2023-02-28T09:56:55.902Z,99588.56
2023-02-28T09:59:39.346Z,99589.53
2023-02-28T10:02:19.789Z,99589.41
2023-02-28T10:04:52.870Z,99594.06
2023-02-28T10:07:33.447Z,99589.53
2023-02-28T10:10:02.512Z,99588.97
2023-02-28T10:12:32.504Z,99593.66
2023-02-28T10:15:01.396Z,99604.94
2023-02-28T10:17:34.533Z,99579.38
2023-02-28T10:20:12.015Z,99583.75
2023-02-28T10:22:43.941Z,99577.41
2023-02-28T10:25:20.205Z,99572.72
2023-02-28T10:27:50.485Z,99578.25
2023-02-28T10:30:19.556Z,99577.25
2023-02-28T10:32:51.484Z,99572.72
2023-02-28T10:35:21.753Z,99573.31
2023-02-28T10:37:52.147Z,99575.97
2023-02-28T10:40:36.690Z,99568.91
2023-02-28T10:43:08.197Z,99571.59
2023-02-28T10:45:38.215Z,99565.38
2023-02-28T10:48:08.707Z,99567.94
2023-02-28T10:50:45.381Z,99560.84
2023-02-28T10:53:52.502Z,99563.53
2023-02-28T10:56:26.829Z,99554.50
2023-02-28T10:58:59.194Z,99553.66
2023-02-28T11:01:37.731Z,99552.78
2023-02-28T11:04:11.871Z,99547.41
2023-02-28T11:06:40.623Z,99551.94
2023-02-28T11:09:22.089Z,99548.41
2023-02-28T11:11:50.687Z,99547.41
2023-02-28T11:14:23.261Z,99546.44
2023-02-28T11:16:52.036Z,99543.88
2023-02-28T11:19:23.210Z,99536.00
2023-02-28T11:21:57.346Z,99537.69
2023-02-28T11:24:28.054Z,99539.53
2023-02-28T11:26:57.214Z,99532.59
2023-02-28T11:29:28.650Z,99529.34
2023-02-28T11:32:18.412Z,99528.78
2023-02-28T11:34:47.361Z,99527.66
2023-02-28T11:37:17.974Z,99528.31
2023-02-28T11:39:46.987Z,99520.16
2023-02-28T11:42:41.375Z,99509.28
2023-02-28T11:45:25.957Z,99521.81
2023-02-28T11:48:00.428Z,99508.16
2023-02-28T11:50:44.538Z,99506.16
2023-02-28T11:53:23.026Z,99500.94
2023-02-28T11:55:55.759Z,99507.00
2023-02-28T11:58:37.341Z,99497.41
2023-02-28T12:01:22.863Z,99502.78
2023-02-28T12:04:00.965Z,99491.31
2023-02-28T12:06:35.299Z,99491.31
2023-02-28T12:09:14.252Z,99491.31
2023-02-28T12:11:54.338Z,99496.69
2023-02-28T12:15:07.936Z,99486.94
2023-02-28T12:17:49.295Z,99494.16
2023-02-28T12:20:26.555Z,99488.81
2023-02-28T12:23:02.864Z,99489.78
2023-02-28T12:26:01.457Z,99493.28
2023-02-28T12:28:33.553Z,99494.31
2023-02-28T12:31:03.754Z,99486.25
2023-02-28T12:33:36.966Z,99491.63
2023-02-28T12:36:08.285Z,99491.63
2023-02-28T12:38:40.084Z,99488.94
2023-02-28T12:41:13.118Z,99488.94
2023-02-28T12:43:45.522Z,99481.88
2023-02-28T12:46:17.326Z,99475.50
2023-02-28T12:48:49.770Z,99477.47
2023-02-28T12:51:18.873Z,99470.44
2023-02-28T12:54:01.665Z,99468.44
2023-02-28T12:56:38.273Z,99461.06
2023-02-28T12:59:13.275Z,99470.13
2023-02-28T13:02:26.883Z,99469.44
2023-02-28T13:05:42.808Z,99471.25
2023-02-28T13:08:52.797Z,99467.75
2023-02-28T13:11:32.256Z,99469.59
2023-02-28T13:14:03.253Z,99468.75
2023-02-28T13:16:52.574Z,99468.75
2023-02-28T13:19:21.316Z,99466.91
2023-02-28T13:21:51.388Z,99459.81
2023-02-28T13:24:52.594Z,99461.66
2023-02-28T13:27:34.763Z,99454.44
2023-02-28T13:30:03.926Z,99462.50
2023-02-28T13:32:40.601Z,99456.28
2023-02-28T13:35:40.561Z,99458.84
2023-02-28T13:38:37.099Z,99450.94
2023-02-28T13:41:51.525Z,99453.47
2023-02-28T13:44:24.302Z,99444.59
2023-02-28T13:47:35.912Z,99456.28
2023-02-28T13:50:22.144Z,99453.59
2023-02-28T13:52:57.832Z,99450.09
2023-02-28T13:55:30.766Z,99444.72
2023-02-28T13:58:13.976Z,99437.50
2023-02-28T14:01:02.997Z,99432.97
2023-02-28T14:03:47.884Z,99442.75
2023-02-28T14:06:25.893Z,99434.69
2023-02-28T14:09:00.879Z,99434.81
2023-02-28T14:11:33.726Z,99432.13
2023-02-28T14:14:02.518Z,99432.13
2023-02-28T14:16:41.977Z,99432.13
2023-02-28T14:19:15.190Z,99418.72
2023-02-28T14:21:53.229Z,99424.25
2023-02-28T14:25:01.667Z,99424.06
2023-02-28T14:27:38.637Z,99424.25
2023-02-28T14:31:01.358Z,99426.63
2023-02-28T14:33:49.793Z,99418.72
2023-02-28T14:36:22.690Z,99407.13
2023-02-28T14:38:54.314Z,99417.03
2023-02-28T14:41:25.796Z,99413.88
2023-02-28T14:43:58.349Z,99415.72
2023-02-28T14:46:33.008Z,99408.81
2023-02-28T14:49:01.818Z,99406.00
2023-02-28T14:51:30.518Z,99407.97
2023-02-28T14:54:01.667Z,99412.50
2023-02-28T14:56:35.129Z,99412.50
2023-02-28T14:59:05.894Z,99413.34
2023-02-28T15:01:35.122Z,99417.88
2023-02-28T15:04:06.107Z,99414.34
2023-02-28T15:06:35.127Z,99413.34
2023-02-28T15:09:16.520Z,99417.03
2023-02-28T15:11:50.422Z,99408.97
2023-02-28T15:14:22.489Z,99415.06
2023-02-28T15:16:55.060Z,99417.75
2023-02-28T15:19:26.275Z,99410.22
2023-02-28T15:21:57.723Z,99409.69
2023-02-28T15:24:33.918Z,99416.03
2023-02-28T15:27:08.668Z,99413.03
2023-02-28T15:29:48.704Z,99404.31
2023-02-28T15:32:29.495Z,99407.13
2023-02-28T15:34:58.535Z,99407.97
2023-02-28T15:37:36.062Z,99411.66
2023-02-28T15:40:14.539Z,99410.81
2023-02-28T15:42:44.904Z,99417.03
2023-02-28T15:45:36.123Z,99417.03
2023-02-28T15:48:13.616Z,99417.16
2023-02-28T15:50:43.468Z,99408.81
2023-02-28T15:53:17.385Z,99407.00
2023-02-28T15:55:46.027Z,99408.97
2023-02-28T15:58:15.100Z,99417.03
2023-02-28T16:00:50.516Z,99412.38
2023-02-28T16:03:29.433Z,99412.38
2023-02-28T16:06:38.959Z,99411.66
2023-02-28T16:09:09.465Z,99406.56
2023-02-28T16:11:42.257Z,99409.22
2023-02-28T16:14:20.030Z,99415.44
2023-02-28T16:16:52.834Z,99413.59
2023-02-28T16:19:21.749Z,99420.81
2023-02-28T16:21:50.461Z,99411.06
2023-02-28T16:24:19.180Z,99414.59
2023-02-28T16:26:50.123Z,99415.44
2023-02-28T16:29:23.072Z,99414.34
2023-02-28T16:31:54.461Z,99417.56
2023-02-28T16:34:23.128Z,99420.41
2023-02-28T16:36:51.951Z,99433.13
2023-02-28T16:39:21.877Z,99427.03
2023-02-28T16:41:51.051Z,99434.09
2023-02-28T16:44:29.246Z,99437.75
2023-02-28T16:46:59.336Z,99436.91
2023-02-28T16:49:28.089Z,99442.16
2023-02-28T16:51:56.771Z,99444.00
2023-02-28T16:54:25.717Z,99446.69
2023-02-28T16:56:54.360Z,99437.75
2023-02-28T16:59:25.617Z,99451.19
2023-02-28T17:01:54.690Z,99440.44
2023-02-28T17:04:24.819Z,99453.88
2023-02-28T17:06:53.490Z,99439.59
2023-02-28T17:09:26.331Z,99451.19
2023-02-28T17:12:00.469Z,99456.56
2023-02-28T17:14:29.176Z,99454.88
2023-02-28T17:16:59.908Z,99463.78
2023-02-28T17:19:30.220Z,99460.94
2023-02-28T17:21:58.767Z,99457.44
2023-02-28T17:24:31.312Z,99461.09
2023-02-28T17:27:00.382Z,99468.03
2023-02-28T17:29:29.073Z,99457.28
2023-02-28T17:32:00.746Z,99462.38
2023-02-28T17:34:33.059Z,99468.28
2023-02-28T17:37:02.848Z,99460.69
2023-02-28T17:39:32.552Z,99459.97
2023-02-28T17:42:01.138Z,99460.69
2023-02-28T17:44:29.989Z,99468.75
2023-02-28T17:46:58.719Z,99461.66
2023-02-28T17:49:27.384Z,99467.03
2023-02-28T17:51:57.896Z,99460.94
2023-02-28T17:54:27.004Z,99464.50
2023-02-28T17:56:55.651Z,99465.34
2023-02-28T17:59:24.376Z,99463.63
2023-02-28T18:01:55.386Z,99460.94
2023-02-28T18:04:27.978Z,99458.28
2023-02-28T18:07:01.072Z,99467.19
2023-02-28T18:09:31.528Z,99458.28
2023-02-28T18:12:00.169Z,99459.69
2023-02-28T18:14:28.806Z,99463.38
2023-02-28T18:16:57.709Z,99465.34
2023-02-28T18:19:26.509Z,99458.28
2023-02-28T18:21:57.021Z,99460.13
2023-02-28T18:24:26.953Z,99467.28
2023-02-28T18:26:55.668Z,99463.63
2023-02-28T18:29:25.652Z,99453.88
2023-02-28T18:31:55.058Z,99460.13
2023-02-28T18:34:23.981Z,99458.41
2023-02-28T18:36:53.515Z,99457.44
2023-02-28T18:39:25.371Z,99464.59
2023-02-28T18:41:54.017Z,99458.41
2023-02-28T18:44:22.628Z,99458.00
2023-02-28T18:46:51.376Z,99458.97
2023-02-28T18:49:20.285Z,99462.22
2023-02-28T18:51:48.923Z,99460.41
2023-02-28T18:54:18.053Z,99452.63
2023-02-28T18:56:47.966Z,99462.50
2023-02-28T18:59:16.515Z,99458.28
2023-02-28T19:01:46.681Z,99459.97
2023-02-28T19:04:15.590Z,99457.28
2023-02-28T19:06:47.084Z,99446.25
2023-02-28T19:09:15.729Z,99454.31
2023-02-28T19:11:44.392Z,99447.28
2023-02-28T19:14:14.389Z,99442.16
2023-02-28T19:16:42.988Z,99441.31
2023-02-28T19:19:11.668Z,99440.44
2023-02-28T19:21:40.270Z,99442.28
2023-02-28T19:24:10.652Z,99440.44
2023-02-28T19:26:39.406Z,99449.50
2023-02-28T19:29:08.217Z,99453.03
2023-02-28T19:31:39.393Z,99450.34
2023-02-28T19:34:08.285Z,99452.19
2023-02-28T19:36:37.966Z,99450.47
2023-02-28T19:39:07.262Z,99462.94
2023-02-28T19:41:36.191Z,99454.00
2023-02-28T19:44:04.899Z,99450.47
2023-02-28T19:46:33.450Z,99458.53
2023-02-28T19:49:03.441Z,99449.50
2023-02-28T19:51:34.075Z,99458.41
2023-02-28T19:54:02.823Z,99455.84
2023-02-28T19:56:31.607Z,99453.16
2023-02-28T19:59:00.339Z,99447.78
2023-02-28T20:01:29.010Z,99453.16
2023-02-28T20:03:58.313Z,99455.84
2023-02-28T20:06:28.527Z,99459.38
2023-02-28T20:08:57.254Z,99459.38
2023-02-28T20:11:26.422Z,99457.56
2023-02-28T20:13:55.664Z,99458.53
2023-02-28T20:16:29.355Z,99458.53
2023-02-28T20:18:59.860Z,99464.75
2023-02-28T20:21:30.098Z,99463.06
2023-02-28T20:23:58.637Z,99461.09
2023-02-28T20:26:27.611Z,99466.44
2023-02-28T20:28:56.782Z,99461.09
2023-02-28T20:31:26.741Z,99460.25
2023-02-28T20:33:55.376Z,99454.88
2023-02-28T20:36:24.122Z,99451.31
2023-02-28T20:38:54.831Z,99454.00
2023-02-28T20:41:23.703Z,99452.91
2023-02-28T20:43:55.688Z,99452.75
2023-02-28T20:46:24.405Z,99450.22
2023-02-28T20:48:53.041Z,99444.84
2023-02-28T20:51:21.924Z,99444.72
2023-02-28T20:53:50.504Z,99447.53
2023-02-28T20:56:21.452Z,99438.75
2023-02-28T20:58:52.336Z,99445.81
2023-02-28T21:01:26.019Z,99451.31
2023-02-28T21:03:56.174Z,99449.50
2023-02-28T21:06:26.518Z,99447.78
2023-02-28T21:08:55.252Z,99446.81
2023-02-28T21:11:26.494Z,99442.41
2023-02-28T21:13:55.459Z,99442.41
2023-02-28T21:16:25.572Z,99440.75
2023-02-28T21:18:54.282Z,99436.22
2023-02-28T21:21:24.417Z,99439.75
2023-02-28T21:23:53.275Z,99435.38
2023-02-28T21:26:24.288Z,99436.34
2023-02-28T21:28:53.332Z,99431.84
2023-02-28T21:31:22.853Z,99439.03
2023-02-28T21:33:51.460Z,99440.75
2023-02-28T21:36:22.037Z,99440.88
2023-02-28T21:38:56.320Z,99450.75
2023-02-28T21:41:26.589Z,99448.94
2023-02-28T21:43:55.761Z,99447.94
2023-02-28T21:46:26.871Z,99445.28
2023-02-28T21:48:55.596Z,99442.59
2023-02-28T21:51:25.440Z,99447.78
2023-02-28T21:53:54.167Z,99444.13
2023-02-28T21:56:26.512Z,99449.63
2023-02-28T21:59:00.454Z,99444.41
2023-02-28T22:01:31.015Z,99443.56
2023-02-28T22:04:00.310Z,99443.72
2023-02-28T22:06:31.219Z,99446.41
2023-02-28T22:09:02.188Z,99448.09
2023-02-28T22:11:32.438Z,99454.47
2023-02-28T22:14:01.344Z,99445.56
2023-02-28T22:16:40.864Z,99455.84
2023-02-28T22:19:18.594Z,99453.16
2023-02-28T22:21:47.710Z,99444.13
2023-02-28T22:24:17.878Z,99446.09
2023-02-28T22:26:48.173Z,99454.00
2023-02-28T22:29:16.772Z,99452.19
2023-02-28T22:31:45.377Z,99453.88
2023-02-28T22:34:14.469Z,99459.38
2023-02-28T22:36:43.561Z,99459.38
2023-02-28T22:39:12.380Z,99465.75
2023-02-28T22:41:41.103Z,99468.44
2023-02-28T22:44:11.998Z,99463.91
2023-02-28T22:46:40.765Z,99466.75
2023-02-28T22:49:09.626Z,99465.88
2023-02-28T22:51:38.441Z,99469.44
2023-02-28T22:54:07.352Z,99464.06
2023-02-28T22:56:35.987Z,99477.59
2023-02-28T22:59:04.645Z,99473.94
2023-02-28T23:01:35.558Z,99469.56
2023-02-28T23:04:04.884Z,99475.75
2023-02-28T23:06:35.143Z,99475.75
2023-02-28T23:09:06.107Z,99485.66
2023-02-28T23:11:36.062Z,99488.34
2023-02-28T23:14:04.816Z,99493.72
2023-02-28T23:16:36.922Z,99491.03
2023-02-28T23:19:07.764Z,99488.34
2023-02-28T23:21:37.213Z,99486.66
2023-02-28T23:24:10.710Z,99492.03
2023-02-28T23:26:39.576Z,99479.47
2023-02-28T23:29:08.333Z,99481.28
2023-02-28T23:31:38.457Z,99473.25
2023-02-28T23:34:07.446Z,99467.03
2023-02-28T23:36:36.054Z,99471.41
2023-02-28T23:39:04.726Z,99474.09
2023-02-28T23:41:33.256Z,99469.56
2023-02-28T23:44:01.815Z,99474.09
2023-02-28T23:46:30.473Z,99477.59
2023-02-28T23:49:01.603Z,99468.72
2023-02-28T23:51:30.333Z,99457.97
2023-02-28T23:53:59.793Z,99468.72
2023-02-28T23:56:28.643Z,99474.94
2023-02-28T23:58:58.716Z,99475.94
